• Join FlightAware (Why Join?)
  • Login
  • US Flag 
06:50AM EST


 

Airport Tracker/Info


-or-


 

Live Flight TrackerFlight Track Log ✈ AWI3852 ✈ 22-Apr-2013 ✈ KPHL - KLGA

Flight Track Log - Related Links

Times and Time Zones

All times are in EDT time to prevent confusion due to time zone crossing. See the AWI3852 flight status page for this flight to view local times or setup timezone preferences in your user account.

Time Position Orientation Groundspeed Altitude Reporting Facility
EDT Latitude Longitude Course Direction KTS MPH feet Rate Location/Type
07:33PM 39.8833 -75.2019 37° Northeast 132 152 1,000  Level FAA TRACON SMA TRACON (SMA)
07:33PM 39.8814 -75.1881 100° East 152 175 1,700 1,846 Climbing FAA TRACON SMA TRACON (SMA)
07:33PM 39.8778 -75.1667 102° East 192 221 2,200 2,769 Climbing FAA TRACON SMA TRACON (SMA)
07:34PM 39.8733 -75.1403 102° East 197 227 3,500 3,150 Climbing FAA TRACON SMA TRACON (SMA)
07:34PM 39.8700 -75.1178 101° East 204 235 4,300 2,100 Climbing FAA TRACON SMA TRACON (SMA)
07:34PM 39.8667 -75.0936 100° East 217 250 4,900 2,700 Climbing FAA TRACON SMA TRACON (SMA)
07:35PM 40.0868 -74.6450 47° Northeast  Level FlightAware Approximate
07:35PM 39.8622 -75.0597 100° East 243 280 6,100  Level FAA TRACON SMA TRACON (SMA)
07:35PM 39.8606 -75.0331 95° East 252 290 6,500 1,317 Climbing FAA TRACON SMA TRACON (SMA)
07:35PM 39.8661 -75.0022 77° East 276 318 7,000 2,049 Climbing FAA TRACON SMA TRACON (SMA)
07:36PM 40.2124 -74.4685 42° Northeast  Level FlightAware Approximate
07:36PM 39.8836 -74.9692 55° Northeast 288 331 7,900  Level FAA TRACON SMA TRACON (SMA)
07:36PM 39.9003 -74.9453 48° Northeast 288 331 8,000 154 Climbing FAA TRACON SMA TRACON (SMA)
07:36PM 39.9194 -74.9164 49° Northeast 284 327 8,000  Level FAA TRACON SMA TRACON (SMA)
07:37PM 40.3436 -74.2990 47° Northeast  Level FlightAware Approximate
07:37PM 39.9353 -74.8931 48° Northeast 283 326 8,000  Level FAA TRACON SMA TRACON (SMA)
07:37PM 39.9508 -74.8678 51° Northeast 281 323 8,000  Level FAA TRACON SMA TRACON (SMA)
07:38PM 40.4726 -74.1274 37° Northeast  Level FlightAware Approximate
07:38PM 39.9694 -74.8375 51° Northeast 279 321 8,000  Level FAA TRACON SMA TRACON (SMA)
07:38PM 39.9847 -74.8139 50° Northeast 280 322 8,000  Level FAA TRACON SMA TRACON (SMA)
07:38PM 40.0006 -74.7894 50° Northeast 282 325 8,000  Level FAA TRACON SMA TRACON (SMA)
07:38PM 40.0197 -74.7606 49° Northeast 284 327 8,000  Level FAA TRACON SMA TRACON (SMA)
07:39PM 40.0367 -74.7350 49° Northeast 286 329 8,000  Level FAA TRACON SMA TRACON (SMA)
07:39PM 40.0528 -74.7103 50° Northeast 287 330 8,000  Level FAA TRACON SMA TRACON (SMA)
07:39PM 40.0736 -74.6819 46° Northeast 288 331 8,000  Level FAA TRACON SMA TRACON (SMA)
07:40PM 40.0906 -74.6564 49° Northeast 289 333 8,000  Level FAA TRACON SMA TRACON (SMA)
07:40PM 40.1069 -74.6333 47° Northeast 290 334 8,000  Level FAA TRACON SMA TRACON (SMA)
07:40PM 40.1233 -74.6092 48° Northeast 290 334 8,000  Level FAA TRACON SMA TRACON (SMA)
07:41PM 40.1447 -74.5789 47° Northeast 288 331 8,000  Level FAA TRACON SMA TRACON (SMA)
07:41PM 40.1611 -74.5550 48° Northeast 288 331 8,000  Level FAA TRACON SMA TRACON (SMA)
07:41PM 40.1756 -74.5339 48° Northeast 287 330 8,000  Level FAA TRACON SMA TRACON (SMA)
07:42PM 40.1981 -74.5014 48° Northeast 287 330 8,000  Level FAA TRACON SMA TRACON (SMA)
07:42PM 40.2150 -74.4781 46° Northeast 287 330 8,000  Level FAA TRACON SMA TRACON (SMA)
07:42PM 40.2369 -74.4514 43° Northeast 287 330 8,000  Level FAA TRACON SMA TRACON (SMA)
07:43PM 40.2544 -74.4283 45° Northeast 285 328 8,000  Level FAA TRACON SMA TRACON (SMA)
07:43PM 40.2728 -74.4064 42° Northeast 285 328 8,000 -150 Level FAA TRACON SMA TRACON (SMA)
07:43PM 40.2925 -74.3811 44° Northeast 273 314 7,900 -300 Descending FAA TRACON SMA TRACON (SMA)
07:44PM 40.3081 -74.3639 40° Northeast 256 295 7,800 -450 Descending FAA TRACON SMA TRACON (SMA)
07:44PM 40.3236 -74.3433 45° Northeast 243 280 7,600 -750 Descending FAA TRACON SMA TRACON (SMA)
07:44PM 40.3383 -74.3236 46° Northeast 246 283 7,300 -732 Descending FAA TRACON SMA TRACON (SMA)
07:45PM 40.3506 -74.3089 43° Northeast 252 290 7,100 -138 Descending FAA TRACON SMA TRACON (SMA)
07:46PM 40.4167 -74.2333 41° Northeast 229 264 7,100 -95 Level New York TRACON
07:47PM 40.4667 -74.1833 37° Northeast 235 270 6,900 -700 Descending New York TRACON
07:48PM 40.5167 -74.1333 37° Northeast 215 247 5,700 -1,150 Descending New York TRACON
07:49PM 40.5500 -74.0833 49° Northeast 180 207 4,600 -1,150 Descending New York TRACON
07:50PM 40.5833 -74.0500 37° Northeast 177 204 3,400 -750 Descending New York TRACON
07:51PM 40.6167 -74.0000 49° Northeast 165 190 3,100 -300 Descending New York TRACON
07:52PM 40.6667 -73.9833 14° North 175 201 2,800 -300 Descending New York TRACON